Time;durP1;ratioP1;P1;durP2;ratioP2;P2;SDS_P1;SDS_P2;PMS_P1;PMS_P2;Temp;Humidity;BMP_temperature;BMP_pressure;BME280_temperature;BME280_humidity;BME280_pressure;Samples;Min_cycle;Max_cycle;Signal;HPM_P1;HPM_P2
2022/02/10 00:13:59;;;;;;;3.75;1.42;;;17.20;52.40;;;;;;5134097;28;20073;-45
2022/02/10 00:21:44;;;;;;;1.50;1.20;;;17.20;52.40;;;;;;5134735;27;20059;-51
2022/02/10 00:35:18;;;;;;;1.55;1.20;;;17.10;52.40;;;;;;5133131;28;20022;-48
2022/02/10 00:37:59;;;;;;;1.75;1.35;;;17.20;52.40;;;;;;5133882;27;20035;-47
2022/02/10 00:40:45;;;;;;;1.58;1.30;;;17.10;52.40;;;;;;5132793;28;20043;-48
2022/02/10 00:43:10;;;;;;;2.00;1.38;;;17.10;52.40;;;;;;5134759;27;20019;-50
2022/02/10 00:45:56;;;;;;;3.28;1.13;;;17.10;52.50;;;;;;5137554;27;20039;-48
2022/02/10 00:48:42;;;;;;;2.20;1.35;;;17.10;52.50;;;;;;5136684;27;20043;-50
2022/02/10 00:51:08;;;;;;;2.10;1.33;;;17.10;52.50;;;;;;5138460;27;20023;-51
2022/02/10 00:53:38;;;;;;;1.85;1.10;;;17.10;52.50;;;;;;5136770;27;20134;-49
2022/02/10 00:56:06;;;;;;;2.08;1.35;;;17.10;52.40;;;;;;5138449;27;20072;-50
2022/02/10 00:58:33;;;;;;;2.85;1.50;;;17.20;52.50;;;;;;5136504;27;20019;-46
2022/02/10 01:30:19;;;;;;;2.50;1.10;;;17.00;52.60;;;;;;5139060;27;20104;-50
2022/02/10 01:32:48;;;;;;;1.52;1.40;;;17.10;52.60;;;;;;5120068;27;20062;-51
2022/02/10 01:35:19;;;;;;;1.55;1.13;;;17.10;52.60;;;;;;5138522;27;20465;-52
2022/02/10 01:37:46;;;;;;;2.38;1.50;;;17.10;52.90;;;;;;5137804;27;20016;-48
2022/02/10 02:04:21;;;;;;;1.60;1.30;;;17.00;52.70;;;;;;5137470;27;20030;-51
2022/02/10 02:06:49;;;;;;;1.80;1.30;;;17.00;52.70;;;;;;5137507;27;20031;-51
2022/02/10 02:09:17;;;;;;;1.60;1.15;;;17.00;52.70;;;;;;5136815;27;20011;-54
2022/02/10 02:11:47;;;;;;;1.60;1.40;;;17.00;52.70;;;;;;5138651;27;20072;-53
2022/02/10 02:14:17;;;;;;;1.38;1.27;;;17.00;52.70;;;;;;5137881;27;20026;-54
2022/02/10 02:16:56;;;;;;;1.90;1.50;;;17.00;52.70;;;;;;5138368;27;20020;-53
2022/02/10 02:19:23;;;;;;;1.48;1.33;;;17.00;52.70;;;;;;5137147;27;20069;-49
2022/02/10 02:21:49;;;;;;;1.98;1.23;;;17.00;52.80;;;;;;5137831;27;20019;-51
2022/02/10 02:24:20;;;;;;;1.83;1.30;;;17.00;52.80;;;;;;5137998;27;20031;-50
2022/02/10 02:26:50;;;;;;;2.28;1.42;;;17.00;52.70;;;;;;5137368;27;20024;-52
2022/02/10 02:29:23;;;;;;;1.60;1.27;;;17.00;52.70;;;;;;5137102;27;20072;-52
2022/02/10 02:31:55;;;;;;;1.85;1.30;;;16.90;52.70;;;;;;5136724;27;20007;-51
2022/02/10 03:06:37;;;;;;;3.47;1.50;;;16.90;52.70;;;;;;5074759;28;20482;-50
2022/02/10 03:09:09;;;;;;;1.75;1.40;;;16.90;52.80;;;;;;5059109;28;20031;-54
2022/02/10 03:11:37;;;;;;;2.05;1.17;;;16.90;52.70;;;;;;5092114;28;20016;-54
2022/02/10 03:14:17;;;;;;;2.58;1.50;;;16.90;52.80;;;;;;5091852;28;20027;-49
2022/02/10 04:26:37;;;;;;;2.25;1.60;;;16.80;52.90;;;;;;5059729;28;20127;-50
2022/02/10 04:56:20;;;;;;;2.25;1.70;;;16.90;52.60;;;;;;5137818;27;20079;-54
2022/02/10 05:33:46;;;;;;;2.65;1.58;;;17.70;50.60;;;;;;5074375;28;20020;-53
2022/02/10 05:36:15;;;;;;;2.00;1.52;;;17.70;50.50;;;;;;5057943;28;20095;-50
2022/02/10 05:38:50;;;;;;;2.05;1.48;;;17.80;50.30;;;;;;5057557;28;20062;-53
2022/02/10 06:51:53;;;;;;;1.40;1.30;;;18.90;47.80;;;;;;5135627;27;20087;-50
2022/02/10 06:57:21;;;;;;;2.00;1.60;;;19.00;47.70;;;;;;5134745;27;20037;-51
2022/02/10 07:02:55;;;;;;;3.78;1.75;;;19.10;47.60;;;;;;5135180;27;20496;-50
2022/02/10 07:54:01;;;;;;;27.42;15.20;;;12.50;69.20;;;;;;5134065;28;20037;-50
2022/02/10 09:06:15;;;;;;;21.48;11.63;;;15.20;61.80;;;;;;5136292;27;20129;-51
2022/02/10 09:14:37;;;;;;;11.27;8.07;;;17.10;56.80;;;;;;5137216;27;20050;-51
2022/02/10 09:18:12;;;;;;;12.38;7.15;;;17.70;54.80;;;;;;5134831;27;20100;-47
2022/02/10 09:58:00;;;;;;;3.58;2.67;;;19.90;48.90;;;;;;5119775;27;20046;-53
2022/02/10 10:02:50;;;;;;;3.78;2.70;;;19.90;48.90;;;;;;5135764;27;20023;-52
2022/02/10 10:13:32;;;;;;;5.43;2.75;;;20.00;48.80;;;;;;5134811;27;20041;-54
2022/02/10 10:16:07;;;;;;;3.10;2.60;;;20.10;48.80;;;;;;5134253;27;20011;-53
2022/02/10 10:21:31;;;;;;;4.55;2.45;;;20.10;48.60;;;;;;5134664;27;20030;-51
2022/02/10 10:26:55;;;;;;;3.63;2.83;;;20.10;48.60;;;;;;5134014;27;20102;-54
2022/02/10 10:54:28;;;;;;;5.82;2.45;;;20.60;52.80;;;;;;5117749;27;20023;-56
2022/02/10 10:56:57;;;;;;;10.27;2.55;;;20.60;52.80;;;;;;5134098;27;20027;-54
2022/02/10 11:38:40;;;;;;;3.83;1.50;;;20.70;50.90;;;;;;5133570;27;20526;-50
2022/02/10 11:43:49;;;;;;;6.07;1.40;;;20.80;50.70;;;;;;5131834;27;20103;-50
2022/02/10 12:42:05;;;;;;;5.80;1.38;;;21.00;48.20;;;;;;5135364;27;20187;-51
2022/02/10 14:12:50;;;;;;;7.25;1.80;;;21.70;45.50;;;;;;5134261;27;20489;-50
2022/02/10 14:16:02;;;;;;;4.90;1.40;;;21.70;45.60;;;;;;5134439;27;20379;-51
2022/02/10 14:28:09;;;;;;;4.32;1.42;;;21.70;45.60;;;;;;5138066;27;20054;-54
2022/02/10 14:30:35;;;;;;;4.70;1.35;;;21.70;45.70;;;;;;5137675;27;20493;-53
2022/02/10 14:33:00;;;;;;;5.05;1.38;;;21.70;45.70;;;;;;5135238;27;20074;-60
2022/02/10 14:35:36;;;;;;;2.90;1.20;;;21.70;45.70;;;;;;5136679;27;20015;-53
2022/02/10 15:46:53;;;;;;;4.72;1.10;;;20.50;48.60;;;;;;5120911;28;20030;-54
2022/02/10 16:16:10;;;;;;;6.75;1.10;;;20.10;49.30;;;;;;5058165;28;20392;-54
2022/02/10 16:18:10;;;;;;;1.77;0.82;;;20.10;49.40;;;;;;5060408;28;20503;-54
2022/02/10 16:20:36;;;;;;;5.30;1.20;;;20.00;49.50;;;;;;5074952;28;20033;-53
2022/02/10 16:23:16;;;;;;;3.55;1.27;;;20.00;49.60;;;;;;5059410;28;20041;-56
2022/02/10 16:25:48;;;;;;;5.68;1.10;;;20.00;49.70;;;;;;5108877;27;20110;-55
2022/02/10 16:30:49;;;;;;;2.15;1.00;;;19.90;49.70;;;;;;5138996;27;20462;-53
2022/02/10 16:33:15;;;;;;;4.20;1.15;;;19.90;49.90;;;;;;5138352;27;20026;-53
2022/02/10 16:35:42;;;;;;;3.17;1.23;;;19.90;49.70;;;;;;5138178;27;20016;-54
2022/02/10 16:38:08;;;;;;;2.17;1.20;;;19.90;49.60;;;;;;5137755;27;20053;-51
2022/02/10 16:40:35;;;;;;;2.78;1.20;;;19.80;49.70;;;;;;5138010;27;20092;-52
2022/02/10 16:43:01;;;;;;;3.22;1.00;;;19.90;49.80;;;;;;5138083;27;20076;-54
2022/02/10 16:45:27;;;;;;;6.30;1.50;;;19.90;49.70;;;;;;5137665;27;20019;-54
2022/02/10 16:47:53;;;;;;;2.50;0.95;;;19.80;49.90;;;;;;5136448;27;20469;-51
2022/02/10 16:50:20;;;;;;;4.28;1.23;;;19.80;49.70;;;;;;5138255;27;20685;-52
2022/02/10 16:52:52;;;;;;;3.03;1.00;;;19.80;49.80;;;;;;5138631;27;20008;-54
2022/02/10 16:55:26;;;;;;;2.55;1.08;;;19.70;49.80;;;;;;5138068;27;20513;-53
2022/02/10 17:14:06;;;;;;;3.40;1.10;;;19.50;50.20;;;;;;5138417;27;20389;-54
2022/02/10 17:19:33;;;;;;;3.28;0.90;;;19.30;50.50;;;;;;5137953;27;20508;-53
2022/02/10 17:27:32;;;;;;;1.83;0.80;;;19.30;50.50;;;;;;5137350;27;20088;-53
2022/02/10 17:33:01;;;;;;;4.07;1.13;;;19.30;50.40;;;;;;5136761;27;20038;-52
2022/02/10 17:53:53;;;;;;;2.47;1.20;;;19.10;50.30;;;;;;5136772;27;20020;-54
2022/02/10 17:56:19;;;;;;;2.95;0.90;;;19.00;50.30;;;;;;5136394;27;20473;-53
2022/02/10 17:58:46;;;;;;;2.17;0.88;;;19.00;50.30;;;;;;5118406;27;20110;-51
2022/02/10 18:01:12;;;;;;;3.28;1.10;;;19.00;50.40;;;;;;5138004;27;20019;-51
2022/02/10 18:04:00;;;;;;;1.92;0.93;;;19.00;50.40;;;;;;5137795;27;20087;-52
2022/02/10 18:06:29;;;;;;;1.92;1.00;;;19.00;50.50;;;;;;5136296;27;20083;-52
2022/02/10 18:14:09;;;;;;;1.70;1.00;;;18.90;50.50;;;;;;5136717;27;20011;-55
2022/02/10 18:16:41;;;;;;;3.33;1.02;;;18.90;50.60;;;;;;5135937;27;20023;-52
2022/02/10 18:19:13;;;;;;;4.28;1.17;;;18.90;50.50;;;;;;5138018;27;20043;-52
2022/02/10 18:27:58;;;;;;;2.47;0.95;;;18.80;50.60;;;;;;5137479;27;20083;-54
2022/02/10 19:10:14;;;;;;;1.35;0.60;;;18.60;50.70;;;;;;5136298;27;20087;-53
2022/02/10 19:12:45;;;;;;;2.08;0.80;;;18.50;50.70;;;;;;5136721;27;20008;-50
2022/02/10 19:15:18;;;;;;;2.03;0.93;;;18.50;50.60;;;;;;5137294;27;20020;-51
2022/02/10 19:17:43;;;;;;;2.13;1.00;;;18.50;50.60;;;;;;5136677;27;20015;-56
2022/02/10 19:20:19;;;;;;;2.72;0.80;;;18.50;50.60;;;;;;5138523;27;20049;-54
2022/02/10 19:22:48;;;;;;;1.85;0.80;;;18.50;50.60;;;;;;5135686;27;20019;-53
2022/02/10 19:25:15;;;;;;;1.27;0.70;;;18.50;50.60;;;;;;5136762;27;20027;-52
2022/02/10 19:27:41;;;;;;;1.25;0.70;;;18.50;50.60;;;;;;5135356;27;20080;-52
2022/02/10 19:30:09;;;;;;;3.08;0.98;;;18.50;51.10;;;;;;5133678;27;20011;-54
2022/02/10 19:32:38;;;;;;;1.73;0.93;;;18.50;50.60;;;;;;5134690;27;20015;-49
2022/02/10 19:35:04;;;;;;;1.25;0.80;;;18.50;50.50;;;;;;5134499;27;20462;-54
2022/02/10 19:37:31;;;;;;;1.35;0.70;;;18.40;50.50;;;;;;5134807;27;20019;-51
2022/02/10 19:40:00;;;;;;;1.67;0.90;;;18.50;50.50;;;;;;5134735;27;20023;-52
2022/02/10 19:42:29;;;;;;;3.65;1.02;;;18.50;50.60;;;;;;5134891;27;20069;-52
2022/02/10 19:44:59;;;;;;;4.93;0.98;;;18.50;50.60;;;;;;5134641;27;20466;-49
2022/02/10 19:47:32;;;;;;;1.83;1.00;;;18.40;50.40;;;;;;5134606;27;20064;-49
2022/02/10 19:49:58;;;;;;;0.90;0.70;;;18.40;50.50;;;;;;5134339;27;20763;-50
2022/02/10 19:52:24;;;;;;;1.63;0.80;;;18.40;50.40;;;;;;5134721;27;20007;-50
2022/02/10 19:54:52;;;;;;;0.98;0.70;;;18.40;50.40;;;;;;5135146;27;20014;-52
2022/02/10 19:57:20;;;;;;;2.50;0.80;;;18.40;50.40;;;;;;5135874;27;20477;-52
2022/02/10 19:59:46;;;;;;;1.23;0.70;;;18.40;50.40;;;;;;5136853;27;20452;-51
2022/02/10 20:02:13;;;;;;;2.08;0.90;;;18.40;50.40;;;;;;5139120;27;20020;-52
2022/02/10 20:04:39;;;;;;;1.42;0.95;;;18.40;50.50;;;;;;5139366;27;20461;-51
2022/02/10 20:07:05;;;;;;;1.50;0.80;;;18.40;50.40;;;;;;5139912;28;20075;-53
2022/02/10 20:09:31;;;;;;;2.10;0.80;;;18.40;50.40;;;;;;5139096;27;20011;-53
2022/02/10 20:11:58;;;;;;;1.25;0.60;;;18.30;50.30;;;;;;5138859;28;20027;-55
2022/02/10 20:14:24;;;;;;;1.13;0.65;;;18.30;50.30;;;;;;5138530;27;20063;-54
2022/02/10 20:16:51;;;;;;;1.20;0.65;;;18.30;50.30;;;;;;5139058;27;20100;-52
2022/02/10 20:19:16;;;;;;;1.73;0.73;;;18.30;50.30;;;;;;5138604;27;20047;-54
2022/02/10 20:21:43;;;;;;;1.85;0.75;;;18.30;50.30;;;;;;5138952;28;20038;-54
2022/02/10 20:24:08;;;;;;;2.65;0.80;;;18.30;50.30;;;;;;5138408;28;20011;-52
2022/02/10 20:26:35;;;;;;;1.15;0.77;;;18.30;50.20;;;;;;5137199;28;20031;-50
2022/02/10 20:29:00;;;;;;;1.98;0.75;;;18.30;50.30;;;;;;5135401;28;20019;-52
2022/02/10 20:31:29;;;;;;;1.88;0.70;;;18.30;50.20;;;;;;5136935;27;20015;-53
2022/02/10 20:33:55;;;;;;;2.17;0.90;;;18.30;50.20;;;;;;5137821;28;20496;-52
2022/02/10 20:36:21;;;;;;;1.00;0.60;;;18.30;50.20;;;;;;5138374;27;20015;-50
2022/02/10 20:38:50;;;;;;;0.70;0.50;;;18.30;50.50;;;;;;5137538;27;20354;-52
2022/02/10 20:41:17;;;;;;;1.58;0.70;;;18.20;50.10;;;;;;5137780;27;20479;-52
2022/02/10 20:43:45;;;;;;;1.73;0.77;;;18.30;50.20;;;;;;5137542;28;20026;-52
2022/02/10 20:46:14;;;;;;;2.67;0.68;;;18.30;50.10;;;;;;5139993;27;20027;-49
2022/02/10 20:48:42;;;;;;;2.67;0.95;;;18.20;50.10;;;;;;5137649;28;20043;-50
2022/02/10 20:51:09;;;;;;;1.73;0.80;;;18.20;50.00;;;;;;5137086;27;20107;-53
2022/02/10 20:53:37;;;;;;;1.13;0.70;;;18.20;50.10;;;;;;5136144;27;20540;-51
2022/02/10 20:56:04;;;;;;;0.88;0.65;;;18.20;50.20;;;;;;5135498;27;20030;-52
2022/02/10 20:58:31;;;;;;;2.40;0.85;;;18.20;50.10;;;;;;5134547;28;20023;-50
2022/02/10 21:00:59;;;;;;;1.48;0.50;;;18.20;50.10;;;;;;5138922;27;20018;-53
2022/02/10 21:03:25;;;;;;;1.92;1.00;;;18.20;50.10;;;;;;5138822;27;20003;-52
2022/02/10 21:05:59;;;;;;;1.02;0.70;;;18.20;50.00;;;;;;5139064;27;20015;-50
2022/02/10 21:11:09;;;;;;;1.00;0.90;;;18.20;50.00;;;;;;5123619;27;20022;-53
2022/02/10 21:13:35;;;;;;;1.60;0.70;;;18.20;50.00;;;;;;5137676;27;20065;-52
2022/02/10 21:16:01;;;;;;;0.63;0.50;;;18.10;50.00;;;;;;5139012;27;20458;-52
2022/02/10 21:18:28;;;;;;;1.20;0.80;;;18.10;50.00;;;;;;5138823;27;20059;-53
2022/02/10 21:21:17;;;;;;;1.30;0.80;;;18.10;50.00;;;;;;5138154;27;20015;-52
2022/02/10 21:24:00;;;;;;;0.80;0.70;;;18.10;50.00;;;;;;5137166;27;20500;-51
2022/02/10 21:26:32;;;;;;;1.05;0.60;;;18.10;49.90;;;;;;5137208;27;20023;-51
2022/02/10 21:29:01;;;;;;;1.10;0.70;;;18.10;50.00;;;;;;5136840;27;20030;-51
2022/02/10 21:31:28;;;;;;;2.20;0.70;;;18.10;50.00;;;;;;5136922;27;20007;-52
2022/02/10 21:34:15;;;;;;;1.52;0.70;;;18.10;50.00;;;;;;5136945;27;20016;-52
2022/02/10 21:39:27;;;;;;;0.73;0.57;;;18.10;49.90;;;;;;5136993;27;20088;-50
2022/02/10 21:45:23;;;;;;;3.33;0.70;;;18.10;50.00;;;;;;5136590;27;20027;-51
2022/02/10 21:53:28;;;;;;;0.98;0.60;;;18.00;49.80;;;;;;5138076;27;20033;-53
2022/02/10 21:55:47;;;;;;;0.73;0.60;;;18.00;49.80;;;;;;5137058;27;20375;-50
2022/02/10 22:02:17;;;;;;;1.67;0.70;;;18.00;49.70;;;;;;5137934;27;20029;-53
2022/02/10 22:20:00;;;;;;;0.70;0.70;;;17.90;49.70;;;;;;5136057;27;20050;-53
2022/02/10 22:22:35;;;;;;;1.58;0.90;;;17.90;49.70;;;;;;5139692;27;20022;-51
2022/02/10 22:25:05;;;;;;;1.50;0.80;;;17.90;49.70;;;;;;5139363;27;20018;-52
2022/02/10 22:27:36;;;;;;;0.60;0.50;;;17.90;49.70;;;;;;5138474;27;20102;-54
2022/02/10 22:30:08;;;;;;;1.15;0.70;;;17.90;49.70;;;;;;5138511;27;20020;-53
2022/02/10 22:35:35;;;;;;;1.10;0.65;;;17.90;49.60;;;;;;5068571;28;20062;-51
2022/02/10 22:38:01;;;;;;;1.00;0.60;;;17.90;49.70;;;;;;5077349;28;20033;-53
2022/02/10 22:40:42;;;;;;;1.25;0.82;;;17.90;49.70;;;;;;5075485;28;20024;-53
2022/02/10 22:43:08;;;;;;;1.30;0.60;;;17.80;49.60;;;;;;5073803;28;20102;-49
2022/02/10 22:45:34;;;;;;;0.98;0.70;;;17.90;49.70;;;;;;5074116;28;20021;-50
2022/02/10 22:48:00;;;;;;;1.10;0.77;;;17.90;49.60;;;;;;5074584;28;20403;-53
2022/02/10 22:50:26;;;;;;;1.20;0.52;;;17.80;49.60;;;;;;5076281;28;20025;-52
2022/02/10 22:52:54;;;;;;;0.75;0.60;;;17.80;49.50;;;;;;5076401;28;20020;-49
2022/02/10 22:55:20;;;;;;;1.50;0.80;;;17.80;49.50;;;;;;5076661;28;20012;-53
2022/02/10 22:57:46;;;;;;;0.70;0.40;;;17.80;49.60;;;;;;5076536;28;20050;-53
2022/02/10 23:00:12;;;;;;;1.33;0.63;;;17.80;49.50;;;;;;5073986;28;20026;-51
2022/02/10 23:02:38;;;;;;;3.60;0.80;;;17.80;49.60;;;;;;5073187;28;20032;-51
2022/02/10 23:05:04;;;;;;;2.70;1.10;;;17.80;49.50;;;;;;5073152;28;20574;-52
2022/02/10 23:07:30;;;;;;;1.10;0.50;;;17.80;49.60;;;;;;5073631;28;20088;-53
2022/02/10 23:10:37;;;;;;;1.33;0.60;;;17.80;49.60;;;;;;5115563;27;20035;-54
2022/02/10 23:12:48;;;;;;;1.58;0.70;;;17.80;49.50;;;;;;5135729;27;20027;-52
2022/02/10 23:15:14;;;;;;;0.65;0.60;;;17.80;49.60;;;;;;5137689;27;20027;-48
2022/02/10 23:17:40;;;;;;;0.80;0.60;;;17.80;49.50;;;;;;5138905;27;20023;-51
2022/02/10 23:20:08;;;;;;;0.98;0.60;;;17.80;49.60;;;;;;5138340;27;20051;-49
2022/02/10 23:22:34;;;;;;;1.15;0.80;;;17.70;49.50;;;;;;5138813;27;20015;-52
2022/02/10 23:25:01;;;;;;;0.80;0.50;;;17.80;49.50;;;;;;5137359;27;20019;-48
2022/02/10 23:27:27;;;;;;;1.33;0.80;;;17.70;49.50;;;;;;5133446;27;20075;-52
2022/02/10 23:29:52;;;;;;;0.93;0.45;;;17.70;49.50;;;;;;5134978;27;20102;-53
2022/02/10 23:32:18;;;;;;;1.48;0.77;;;17.70;49.50;;;;;;5135164;27;20096;-52
2022/02/10 23:34:45;;;;;;;2.05;0.70;;;17.70;49.50;;;;;;5133837;27;20363;-51
2022/02/10 23:37:11;;;;;;;1.50;0.50;;;17.70;49.50;;;;;;5137174;27;20026;-53
2022/02/10 23:39:39;;;;;;;1.50;0.70;;;17.70;49.50;;;;;;5136340;27;20342;-50
2022/02/10 23:42:16;;;;;;;0.73;0.60;;;17.70;49.50;;;;;;5136926;27;20068;-52
2022/02/10 23:44:47;;;;;;;1.40;0.60;;;17.70;50.00;;;;;;5134215;27;20050;-51
2022/02/10 23:47:22;;;;;;;1.27;0.80;;;17.70;49.50;;;;;;5134487;27;20038;-54
2022/02/10 23:49:51;;;;;;;2.70;0.70;;;17.70;49.50;;;;;;5134405;27;20027;-52
2022/02/10 23:52:17;;;;;;;1.55;0.60;;;17.70;49.50;;;;;;5134335;27;20062;-49
2022/02/10 23:54:49;;;;;;;0.65;0.57;;;17.60;49.30;;;;;;5134239;27;20482;-55
2022/02/10 23:57:32;;;;;;;1.05;0.80;;;17.70;49.40;;;;;;5134500;27;20121;-49
